sensor_id;sensor_type;location;lat;lon;timestamp;P1;durP1;ratioP1;P2;durP2;ratioP2
10529;SDS011;5313;48.834;9.228;2023-04-25T00:01:21;2.73;;;1.60;;
10529;SDS011;5313;48.834;9.228;2023-04-25T00:03:47;1.90;;;1.43;;
10529;SDS011;5313;48.834;9.228;2023-04-25T00:06:13;1.90;;;1.50;;
10529;SDS011;5313;48.834;9.228;2023-04-25T00:08:39;1.43;;;1.33;;
10529;SDS011;5313;48.834;9.228;2023-04-25T00:11:04;1.80;;;1.30;;
10529;SDS011;5313;48.834;9.228;2023-04-25T00:13:30;2.97;;;1.80;;
10529;SDS011;5313;48.834;9.228;2023-04-25T00:15:56;2.13;;;1.43;;
10529;SDS011;5313;48.834;9.228;2023-04-25T00:18:22;2.10;;;1.80;;
10529;SDS011;5313;48.834;9.228;2023-04-25T00:20:48;3.00;;;1.70;;
10529;SDS011;5313;48.834;9.228;2023-04-25T00:23:15;1.73;;;1.40;;
10529;SDS011;5313;48.834;9.228;2023-04-25T00:25:42;1.97;;;1.40;;
10529;SDS011;5313;48.834;9.228;2023-04-25T00:28:09;1.77;;;1.30;;
10529;SDS011;5313;48.834;9.228;2023-04-25T00:30:34;1.93;;;1.50;;
10529;SDS011;5313;48.834;9.228;2023-04-25T00:33:00;1.87;;;1.40;;
10529;SDS011;5313;48.834;9.228;2023-04-25T00:35:25;2.30;;;1.60;;
10529;SDS011;5313;48.834;9.228;2023-04-25T00:37:51;4.30;;;1.70;;
10529;SDS011;5313;48.834;9.228;2023-04-25T00:40:16;2.03;;;1.50;;
10529;SDS011;5313;48.834;9.228;2023-04-25T00:42:42;2.43;;;1.60;;
10529;SDS011;5313;48.834;9.228;2023-04-25T00:45:08;1.50;;;1.30;;
10529;SDS011;5313;48.834;9.228;2023-04-25T00:47:39;1.67;;;1.43;;
10529;SDS011;5313;48.834;9.228;2023-04-25T00:50:05;1.20;;;1.10;;
10529;SDS011;5313;48.834;9.228;2023-04-25T00:52:31;3.47;;;1.27;;
10529;SDS011;5313;48.834;9.228;2023-04-25T00:54:57;2.53;;;1.50;;
10529;SDS011;5313;48.834;9.228;2023-04-25T00:57:23;1.63;;;1.40;;
10529;SDS011;5313;48.834;9.228;2023-04-25T00:59:48;1.43;;;1.20;;
10529;SDS011;5313;48.834;9.228;2023-04-25T01:02:17;1.60;;;1.50;;
10529;SDS011;5313;48.834;9.228;2023-04-25T01:04:42;3.10;;;1.77;;
10529;SDS011;5313;48.834;9.228;2023-04-25T01:07:08;2.17;;;1.50;;
10529;SDS011;5313;48.834;9.228;2023-04-25T01:09:35;2.33;;;1.43;;
10529;SDS011;5313;48.834;9.228;2023-04-25T01:12:01;1.70;;;1.20;;
10529;SDS011;5313;48.834;9.228;2023-04-25T01:14:27;2.27;;;1.47;;
10529;SDS011;5313;48.834;9.228;2023-04-25T01:16:54;3.27;;;1.27;;
10529;SDS011;5313;48.834;9.228;2023-04-25T01:19:19;1.80;;;1.40;;
10529;SDS011;5313;48.834;9.228;2023-04-25T01:21:45;2.20;;;1.43;;
10529;SDS011;5313;48.834;9.228;2023-04-25T01:24:11;2.20;;;1.40;;
10529;SDS011;5313;48.834;9.228;2023-04-25T01:26:37;3.33;;;1.50;;
10529;SDS011;5313;48.834;9.228;2023-04-25T01:29:04;1.63;;;1.53;;
10529;SDS011;5313;48.834;9.228;2023-04-25T01:31:31;1.73;;;1.47;;
10529;SDS011;5313;48.834;9.228;2023-04-25T01:33:57;2.03;;;1.50;;
10529;SDS011;5313;48.834;9.228;2023-04-25T01:36:23;2.93;;;1.70;;
10529;SDS011;5313;48.834;9.228;2023-04-25T01:38:49;3.10;;;1.63;;
10529;SDS011;5313;48.834;9.228;2023-04-25T01:41:15;2.90;;;2.00;;
10529;SDS011;5313;48.834;9.228;2023-04-25T01:43:42;2.60;;;1.60;;
10529;SDS011;5313;48.834;9.228;2023-04-25T01:46:08;4.67;;;1.50;;
10529;SDS011;5313;48.834;9.228;2023-04-25T01:48:35;2.07;;;1.60;;
10529;SDS011;5313;48.834;9.228;2023-04-25T01:51:01;3.13;;;1.60;;
10529;SDS011;5313;48.834;9.228;2023-04-25T01:53:26;2.23;;;1.70;;
10529;SDS011;5313;48.834;9.228;2023-04-25T01:55:52;3.27;;;1.70;;
10529;SDS011;5313;48.834;9.228;2023-04-25T01:58:17;2.07;;;1.47;;
10529;SDS011;5313;48.834;9.228;2023-04-25T02:00:43;2.20;;;1.57;;
10529;SDS011;5313;48.834;9.228;2023-04-25T02:03:09;3.43;;;2.03;;
10529;SDS011;5313;48.834;9.228;2023-04-25T02:05:35;2.80;;;1.63;;
10529;SDS011;5313;48.834;9.228;2023-04-25T02:08:02;4.03;;;1.80;;
10529;SDS011;5313;48.834;9.228;2023-04-25T02:10:29;2.57;;;1.70;;
10529;SDS011;5313;48.834;9.228;2023-04-25T02:12:55;1.93;;;1.70;;
10529;SDS011;5313;48.834;9.228;2023-04-25T02:15:22;2.87;;;1.90;;
10529;SDS011;5313;48.834;9.228;2023-04-25T02:17:47;2.60;;;1.80;;
10529;SDS011;5313;48.834;9.228;2023-04-25T02:20:13;3.33;;;1.63;;
10529;SDS011;5313;48.834;9.228;2023-04-25T02:22:40;3.73;;;1.80;;
10529;SDS011;5313;48.834;9.228;2023-04-25T02:25:07;2.97;;;1.80;;
10529;SDS011;5313;48.834;9.228;2023-04-25T02:27:34;3.27;;;1.90;;
10529;SDS011;5313;48.834;9.228;2023-04-25T02:29:59;3.47;;;2.07;;
10529;SDS011;5313;48.834;9.228;2023-04-25T02:32:25;3.47;;;1.80;;
10529;SDS011;5313;48.834;9.228;2023-04-25T02:34:51;2.63;;;1.73;;
10529;SDS011;5313;48.834;9.228;2023-04-25T02:37:17;2.90;;;1.70;;
10529;SDS011;5313;48.834;9.228;2023-04-25T02:39:43;3.10;;;1.97;;
10529;SDS011;5313;48.834;9.228;2023-04-25T02:42:08;2.90;;;1.60;;
10529;SDS011;5313;48.834;9.228;2023-04-25T02:44:34;3.20;;;1.97;;
10529;SDS011;5313;48.834;9.228;2023-04-25T02:46:59;3.97;;;1.90;;
10529;SDS011;5313;48.834;9.228;2023-04-25T02:49:25;3.07;;;1.90;;
10529;SDS011;5313;48.834;9.228;2023-04-25T02:51:50;3.27;;;1.87;;
10529;SDS011;5313;48.834;9.228;2023-04-25T02:54:16;2.90;;;1.90;;
10529;SDS011;5313;48.834;9.228;2023-04-25T02:56:41;1.67;;;1.40;;
10529;SDS011;5313;48.834;9.228;2023-04-25T02:59:07;3.20;;;1.80;;
10529;SDS011;5313;48.834;9.228;2023-04-25T03:01:32;2.80;;;2.00;;
10529;SDS011;5313;48.834;9.228;2023-04-25T03:03:58;2.90;;;1.83;;
10529;SDS011;5313;48.834;9.228;2023-04-25T03:06:23;2.70;;;1.90;;
10529;SDS011;5313;48.834;9.228;2023-04-25T03:08:49;3.17;;;1.97;;
10529;SDS011;5313;48.834;9.228;2023-04-25T03:11:14;2.80;;;1.80;;
10529;SDS011;5313;48.834;9.228;2023-04-25T03:13:40;2.37;;;1.87;;
10529;SDS011;5313;48.834;9.228;2023-04-25T03:16:05;2.23;;;1.83;;
10529;SDS011;5313;48.834;9.228;2023-04-25T03:18:31;4.30;;;2.17;;
10529;SDS011;5313;48.834;9.228;2023-04-25T03:20:57;2.23;;;1.80;;
10529;SDS011;5313;48.834;9.228;2023-04-25T03:23:22;5.03;;;1.80;;
10529;SDS011;5313;48.834;9.228;2023-04-25T03:25:48;2.43;;;2.03;;
10529;SDS011;5313;48.834;9.228;2023-04-25T03:28:13;3.53;;;2.20;;
10529;SDS011;5313;48.834;9.228;2023-04-25T03:30:39;3.93;;;2.27;;
10529;SDS011;5313;48.834;9.228;2023-04-25T03:33:04;3.73;;;2.07;;
10529;SDS011;5313;48.834;9.228;2023-04-25T03:35:30;3.17;;;2.50;;
10529;SDS011;5313;48.834;9.228;2023-04-25T03:37:55;6.07;;;2.40;;
10529;SDS011;5313;48.834;9.228;2023-04-25T03:40:21;3.73;;;2.20;;
10529;SDS011;5313;48.834;9.228;2023-04-25T03:42:47;2.70;;;2.17;;
10529;SDS011;5313;48.834;9.228;2023-04-25T03:45:12;2.53;;;1.90;;
10529;SDS011;5313;48.834;9.228;2023-04-25T03:47:38;5.40;;;2.17;;
10529;SDS011;5313;48.834;9.228;2023-04-25T03:50:03;3.47;;;2.40;;
10529;SDS011;5313;48.834;9.228;2023-04-25T03:52:29;3.87;;;1.90;;
10529;SDS011;5313;48.834;9.228;2023-04-25T03:54:55;3.50;;;2.03;;
10529;SDS011;5313;48.834;9.228;2023-04-25T03:57:20;2.73;;;2.07;;
10529;SDS011;5313;48.834;9.228;2023-04-25T03:59:46;4.03;;;2.60;;
10529;SDS011;5313;48.834;9.228;2023-04-25T04:02:11;3.20;;;2.43;;
10529;SDS011;5313;48.834;9.228;2023-04-25T04:04:37;3.50;;;2.37;;
10529;SDS011;5313;48.834;9.228;2023-04-25T04:07:02;2.43;;;1.80;;
10529;SDS011;5313;48.834;9.228;2023-04-25T04:09:28;4.27;;;2.30;;
10529;SDS011;5313;48.834;9.228;2023-04-25T04:11:53;5.27;;;2.27;;
10529;SDS011;5313;48.834;9.228;2023-04-25T04:14:19;3.30;;;2.30;;
10529;SDS011;5313;48.834;9.228;2023-04-25T04:16:44;4.10;;;2.47;;
10529;SDS011;5313;48.834;9.228;2023-04-25T04:19:10;4.17;;;2.40;;
10529;SDS011;5313;48.834;9.228;2023-04-25T04:21:36;3.37;;;2.40;;
10529;SDS011;5313;48.834;9.228;2023-04-25T04:24:01;3.07;;;2.60;;
10529;SDS011;5313;48.834;9.228;2023-04-25T04:26:27;3.13;;;2.40;;
10529;SDS011;5313;48.834;9.228;2023-04-25T04:28:52;3.93;;;2.17;;
10529;SDS011;5313;48.834;9.228;2023-04-25T04:31:22;3.43;;;2.60;;
10529;SDS011;5313;48.834;9.228;2023-04-25T04:33:48;3.60;;;2.07;;
10529;SDS011;5313;48.834;9.228;2023-04-25T04:36:14;3.43;;;2.10;;
10529;SDS011;5313;48.834;9.228;2023-04-25T04:38:40;4.70;;;2.57;;
10529;SDS011;5313;48.834;9.228;2023-04-25T04:41:07;3.97;;;2.37;;
10529;SDS011;5313;48.834;9.228;2023-04-25T04:43:32;3.40;;;2.20;;
10529;SDS011;5313;48.834;9.228;2023-04-25T04:46:00;3.00;;;2.40;;
10529;SDS011;5313;48.834;9.228;2023-04-25T04:48:25;4.03;;;2.30;;
10529;SDS011;5313;48.834;9.228;2023-04-25T04:50:51;4.43;;;2.03;;
10529;SDS011;5313;48.834;9.228;2023-04-25T04:53:17;3.47;;;2.53;;
10529;SDS011;5313;48.834;9.228;2023-04-25T04:55:44;4.73;;;2.83;;
10529;SDS011;5313;48.834;9.228;2023-04-25T04:58:09;6.40;;;3.60;;
10529;SDS011;5313;48.834;9.228;2023-04-25T05:00:34;4.77;;;2.90;;
10529;SDS011;5313;48.834;9.228;2023-04-25T05:03:00;4.43;;;2.77;;
10529;SDS011;5313;48.834;9.228;2023-04-25T05:05:26;4.77;;;3.27;;
10529;SDS011;5313;48.834;9.228;2023-04-25T05:07:51;4.53;;;2.90;;
10529;SDS011;5313;48.834;9.228;2023-04-25T05:10:17;5.83;;;3.03;;
10529;SDS011;5313;48.834;9.228;2023-04-25T05:12:43;5.23;;;3.00;;
10529;SDS011;5313;48.834;9.228;2023-04-25T05:15:09;3.97;;;2.70;;
10529;SDS011;5313;48.834;9.228;2023-04-25T05:17:35;5.63;;;3.00;;
10529;SDS011;5313;48.834;9.228;2023-04-25T05:20:01;5.00;;;2.90;;
10529;SDS011;5313;48.834;9.228;2023-04-25T05:22:26;4.07;;;2.83;;
10529;SDS011;5313;48.834;9.228;2023-04-25T05:24:52;4.63;;;3.00;;
10529;SDS011;5313;48.834;9.228;2023-04-25T05:27:18;3.37;;;2.90;;
10529;SDS011;5313;48.834;9.228;2023-04-25T05:29:44;2.73;;;2.53;;
10529;SDS011;5313;48.834;9.228;2023-04-25T05:32:10;5.03;;;2.93;;
10529;SDS011;5313;48.834;9.228;2023-04-25T05:34:36;4.20;;;2.77;;
10529;SDS011;5313;48.834;9.228;2023-04-25T05:37:01;4.20;;;2.70;;
10529;SDS011;5313;48.834;9.228;2023-04-25T05:39:27;4.27;;;3.27;;
10529;SDS011;5313;48.834;9.228;2023-04-25T05:41:52;3.90;;;3.50;;
10529;SDS011;5313;48.834;9.228;2023-04-25T05:44:18;6.33;;;3.87;;
10529;SDS011;5313;48.834;9.228;2023-04-25T05:46:44;4.80;;;3.73;;
10529;SDS011;5313;48.834;9.228;2023-04-25T05:49:09;5.20;;;3.70;;
10529;SDS011;5313;48.834;9.228;2023-04-25T05:51:35;4.67;;;3.47;;
10529;SDS011;5313;48.834;9.228;2023-04-25T05:54:01;4.93;;;3.67;;
10529;SDS011;5313;48.834;9.228;2023-04-25T05:56:26;8.07;;;4.00;;
10529;SDS011;5313;48.834;9.228;2023-04-25T05:58:52;4.93;;;4.07;;
10529;SDS011;5313;48.834;9.228;2023-04-25T06:01:18;4.97;;;3.80;;
10529;SDS011;5313;48.834;9.228;2023-04-25T06:03:43;5.17;;;3.70;;
10529;SDS011;5313;48.834;9.228;2023-04-25T06:06:09;5.17;;;3.67;;
10529;SDS011;5313;48.834;9.228;2023-04-25T06:08:36;6.17;;;3.73;;
10529;SDS011;5313;48.834;9.228;2023-04-25T06:11:02;6.03;;;3.57;;
10529;SDS011;5313;48.834;9.228;2023-04-25T06:13:28;5.83;;;3.80;;
10529;SDS011;5313;48.834;9.228;2023-04-25T06:15:53;5.13;;;3.83;;
10529;SDS011;5313;48.834;9.228;2023-04-25T06:18:19;6.27;;;3.60;;
10529;SDS011;5313;48.834;9.228;2023-04-25T06:20:44;4.20;;;3.00;;
10529;SDS011;5313;48.834;9.228;2023-04-25T06:23:10;5.93;;;3.37;;
10529;SDS011;5313;48.834;9.228;2023-04-25T06:25:35;6.83;;;3.50;;
10529;SDS011;5313;48.834;9.228;2023-04-25T06:28:01;3.80;;;3.30;;
10529;SDS011;5313;48.834;9.228;2023-04-25T06:30:26;5.07;;;3.30;;
10529;SDS011;5313;48.834;9.228;2023-04-25T06:32:52;3.77;;;3.13;;
10529;SDS011;5313;48.834;9.228;2023-04-25T06:35:20;6.70;;;3.47;;
10529;SDS011;5313;48.834;9.228;2023-04-25T06:37:46;5.37;;;3.53;;
10529;SDS011;5313;48.834;9.228;2023-04-25T06:40:11;3.80;;;3.07;;
10529;SDS011;5313;48.834;9.228;2023-04-25T06:42:37;3.90;;;3.30;;
10529;SDS011;5313;48.834;9.228;2023-04-25T06:45:03;3.23;;;2.90;;
10529;SDS011;5313;48.834;9.228;2023-04-25T06:47:28;3.77;;;3.20;;
10529;SDS011;5313;48.834;9.228;2023-04-25T06:49:54;4.17;;;2.97;;
10529;SDS011;5313;48.834;9.228;2023-04-25T06:52:20;3.90;;;2.97;;
10529;SDS011;5313;48.834;9.228;2023-04-25T06:54:46;4.80;;;2.90;;
10529;SDS011;5313;48.834;9.228;2023-04-25T06:57:11;3.07;;;2.63;;
10529;SDS011;5313;48.834;9.228;2023-04-25T06:59:37;4.00;;;2.70;;
10529;SDS011;5313;48.834;9.228;2023-04-25T07:02:03;3.80;;;3.17;;
10529;SDS011;5313;48.834;9.228;2023-04-25T07:04:29;3.93;;;3.47;;
10529;SDS011;5313;48.834;9.228;2023-04-25T07:06:55;3.60;;;2.93;;
10529;SDS011;5313;48.834;9.228;2023-04-25T07:09:21;5.30;;;3.33;;
10529;SDS011;5313;48.834;9.228;2023-04-25T07:11:46;4.73;;;3.30;;
10529;SDS011;5313;48.834;9.228;2023-04-25T07:14:12;3.90;;;3.23;;
10529;SDS011;5313;48.834;9.228;2023-04-25T07:16:37;3.77;;;3.30;;
10529;SDS011;5313;48.834;9.228;2023-04-25T07:19:03;4.67;;;3.13;;
10529;SDS011;5313;48.834;9.228;2023-04-25T07:21:28;4.63;;;3.33;;
10529;SDS011;5313;48.834;9.228;2023-04-25T07:23:55;4.27;;;3.10;;
10529;SDS011;5313;48.834;9.228;2023-04-25T07:26:21;6.40;;;3.90;;
10529;SDS011;5313;48.834;9.228;2023-04-25T07:28:46;5.57;;;3.60;;
10529;SDS011;5313;48.834;9.228;2023-04-25T07:31:15;4.53;;;3.43;;
10529;SDS011;5313;48.834;9.228;2023-04-25T07:33:42;4.67;;;3.20;;
10529;SDS011;5313;48.834;9.228;2023-04-25T07:36:09;3.47;;;3.07;;
10529;SDS011;5313;48.834;9.228;2023-04-25T07:38:35;4.50;;;3.33;;
10529;SDS011;5313;48.834;9.228;2023-04-25T07:41:00;3.47;;;3.17;;
10529;SDS011;5313;48.834;9.228;2023-04-25T07:43:26;4.90;;;3.60;;
10529;SDS011;5313;48.834;9.228;2023-04-25T07:45:51;5.53;;;3.93;;
10529;SDS011;5313;48.834;9.228;2023-04-25T07:48:17;4.77;;;3.87;;
10529;SDS011;5313;48.834;9.228;2023-04-25T07:50:46;4.43;;;3.87;;
10529;SDS011;5313;48.834;9.228;2023-04-25T07:53:11;5.10;;;4.23;;
10529;SDS011;5313;48.834;9.228;2023-04-25T07:55:37;6.27;;;4.47;;
10529;SDS011;5313;48.834;9.228;2023-04-25T07:58:05;6.00;;;4.57;;
10529;SDS011;5313;48.834;9.228;2023-04-25T08:00:34;5.60;;;4.43;;
10529;SDS011;5313;48.834;9.228;2023-04-25T08:03:00;5.33;;;4.33;;
10529;SDS011;5313;48.834;9.228;2023-04-25T08:05:25;6.03;;;4.70;;
10529;SDS011;5313;48.834;9.228;2023-04-25T08:07:51;8.33;;;4.67;;
10529;SDS011;5313;48.834;9.228;2023-04-25T08:10:16;7.57;;;4.73;;
10529;SDS011;5313;48.834;9.228;2023-04-25T08:12:42;7.73;;;5.20;;
10529;SDS011;5313;48.834;9.228;2023-04-25T08:15:08;6.63;;;4.53;;
10529;SDS011;5313;48.834;9.228;2023-04-25T08:17:34;6.57;;;5.13;;
10529;SDS011;5313;48.834;9.228;2023-04-25T08:20:00;10.13;;;6.03;;
10529;SDS011;5313;48.834;9.228;2023-04-25T08:22:26;8.10;;;5.27;;
10529;SDS011;5313;48.834;9.228;2023-04-25T08:24:53;8.60;;;5.37;;
10529;SDS011;5313;48.834;9.228;2023-04-25T08:27:19;7.87;;;5.67;;
10529;SDS011;5313;48.834;9.228;2023-04-25T08:29:45;7.27;;;5.43;;
10529;SDS011;5313;48.834;9.228;2023-04-25T08:32:11;8.30;;;6.40;;
10529;SDS011;5313;48.834;9.228;2023-04-25T08:34:36;8.43;;;6.17;;
10529;SDS011;5313;48.834;9.228;2023-04-25T08:37:04;7.70;;;5.90;;
10529;SDS011;5313;48.834;9.228;2023-04-25T08:39:30;8.50;;;6.43;;
10529;SDS011;5313;48.834;9.228;2023-04-25T08:41:56;8.10;;;6.43;;
10529;SDS011;5313;48.834;9.228;2023-04-25T08:44:21;8.23;;;5.90;;
10529;SDS011;5313;48.834;9.228;2023-04-25T08:46:48;8.17;;;6.13;;
10529;SDS011;5313;48.834;9.228;2023-04-25T08:49:14;6.93;;;5.23;;
10529;SDS011;5313;48.834;9.228;2023-04-25T08:51:45;8.00;;;6.20;;
10529;SDS011;5313;48.834;9.228;2023-04-25T08:54:12;8.47;;;5.57;;
10529;SDS011;5313;48.834;9.228;2023-04-25T08:56:39;7.60;;;6.43;;
10529;SDS011;5313;48.834;9.228;2023-04-25T08:59:09;7.73;;;6.23;;
10529;SDS011;5313;48.834;9.228;2023-04-25T09:01:35;8.43;;;6.83;;
10529;SDS011;5313;48.834;9.228;2023-04-25T09:04:01;7.73;;;6.93;;
10529;SDS011;5313;48.834;9.228;2023-04-25T09:06:27;9.73;;;6.90;;
10529;SDS011;5313;48.834;9.228;2023-04-25T09:08:54;8.97;;;7.00;;
10529;SDS011;5313;48.834;9.228;2023-04-25T09:11:19;10.80;;;6.90;;
10529;SDS011;5313;48.834;9.228;2023-04-25T09:13:45;9.00;;;7.27;;
10529;SDS011;5313;48.834;9.228;2023-04-25T09:16:10;10.33;;;6.77;;
10529;SDS011;5313;48.834;9.228;2023-04-25T09:18:36;9.27;;;6.33;;
10529;SDS011;5313;48.834;9.228;2023-04-25T09:21:05;10.80;;;7.27;;
10529;SDS011;5313;48.834;9.228;2023-04-25T09:23:38;9.37;;;6.47;;
10529;SDS011;5313;48.834;9.228;2023-04-25T09:26:06;8.57;;;6.30;;
10529;SDS011;5313;48.834;9.228;2023-04-25T09:28:32;10.63;;;6.73;;
10529;SDS011;5313;48.834;9.228;2023-04-25T09:30:59;8.07;;;6.27;;
10529;SDS011;5313;48.834;9.228;2023-04-25T09:33:29;7.63;;;6.27;;
10529;SDS011;5313;48.834;9.228;2023-04-25T09:36:03;7.73;;;6.40;;
10529;SDS011;5313;48.834;9.228;2023-04-25T09:38:31;8.97;;;6.33;;
10529;SDS011;5313;48.834;9.228;2023-04-25T09:40:57;8.80;;;6.40;;
10529;SDS011;5313;48.834;9.228;2023-04-25T09:43:23;8.57;;;6.47;;
10529;SDS011;5313;48.834;9.228;2023-04-25T09:45:50;7.53;;;5.90;;
10529;SDS011;5313;48.834;9.228;2023-04-25T09:48:18;10.60;;;6.10;;
10529;SDS011;5313;48.834;9.228;2023-04-25T09:50:45;7.73;;;6.67;;
10529;SDS011;5313;48.834;9.228;2023-04-25T09:53:30;7.10;;;5.80;;
10529;SDS011;5313;48.834;9.228;2023-04-25T09:55:57;6.10;;;5.00;;
10529;SDS011;5313;48.834;9.228;2023-04-25T09:58:25;7.07;;;5.60;;
10529;SDS011;5313;48.834;9.228;2023-04-25T10:00:54;6.27;;;5.00;;
10529;SDS011;5313;48.834;9.228;2023-04-25T10:03:24;5.27;;;4.63;;
10529;SDS011;5313;48.834;9.228;2023-04-25T10:05:51;5.33;;;4.57;;
10529;SDS011;5313;48.834;9.228;2023-04-25T10:08:18;6.10;;;5.07;;
10529;SDS011;5313;48.834;9.228;2023-04-25T10:10:44;8.53;;;5.60;;
10529;SDS011;5313;48.834;9.228;2023-04-25T10:13:11;8.47;;;5.87;;
10529;SDS011;5313;48.834;9.228;2023-04-25T10:15:39;10.27;;;6.30;;
10529;SDS011;5313;48.834;9.228;2023-04-25T10:18:06;5.70;;;4.40;;
10529;SDS011;5313;48.834;9.228;2023-04-25T10:20:32;4.70;;;4.13;;
10529;SDS011;5313;48.834;9.228;2023-04-25T10:23:06;7.23;;;5.37;;
10529;SDS011;5313;48.834;9.228;2023-04-25T10:25:40;8.27;;;6.17;;
10529;SDS011;5313;48.834;9.228;2023-04-25T10:28:06;9.40;;;6.17;;
10529;SDS011;5313;48.834;9.228;2023-04-25T10:30:31;7.17;;;5.60;;
10529;SDS011;5313;48.834;9.228;2023-04-25T10:32:58;8.70;;;5.93;;
10529;SDS011;5313;48.834;9.228;2023-04-25T10:35:27;9.13;;;5.90;;
10529;SDS011;5313;48.834;9.228;2023-04-25T10:38:04;8.93;;;5.67;;
10529;SDS011;5313;48.834;9.228;2023-04-25T10:40:33;7.20;;;5.57;;
10529;SDS011;5313;48.834;9.228;2023-04-25T10:45:56;8.67;;;5.70;;
10529;SDS011;5313;48.834;9.228;2023-04-25T10:48:28;7.03;;;5.33;;
10529;SDS011;5313;48.834;9.228;2023-04-25T10:51:11;7.57;;;5.80;;
10529;SDS011;5313;48.834;9.228;2023-04-25T10:53:41;6.93;;;5.40;;
10529;SDS011;5313;48.834;9.228;2023-04-25T10:56:19;7.63;;;5.17;;
10529;SDS011;5313;48.834;9.228;2023-04-25T10:58:46;5.77;;;4.43;;
10529;SDS011;5313;48.834;9.228;2023-04-25T11:01:13;6.17;;;4.20;;
10529;SDS011;5313;48.834;9.228;2023-04-25T11:03:42;6.50;;;4.67;;
10529;SDS011;5313;48.834;9.228;2023-04-25T11:06:12;7.80;;;5.47;;
10529;SDS011;5313;48.834;9.228;2023-04-25T11:08:48;7.27;;;4.80;;
10529;SDS011;5313;48.834;9.228;2023-04-25T11:11:16;6.57;;;4.80;;
10529;SDS011;5313;48.834;9.228;2023-04-25T11:13:42;6.77;;;4.87;;
10529;SDS011;5313;48.834;9.228;2023-04-25T11:16:08;7.13;;;5.07;;
10529;SDS011;5313;48.834;9.228;2023-04-25T11:18:34;7.60;;;5.60;;
10529;SDS011;5313;48.834;9.228;2023-04-25T11:20:59;7.60;;;5.37;;
10529;SDS011;5313;48.834;9.228;2023-04-25T11:23:27;6.93;;;5.20;;
10529;SDS011;5313;48.834;9.228;2023-04-25T11:25:53;7.00;;;5.00;;
10529;SDS011;5313;48.834;9.228;2023-04-25T11:28:21;7.77;;;5.30;;
10529;SDS011;5313;48.834;9.228;2023-04-25T11:30:48;6.80;;;4.50;;
10529;SDS011;5313;48.834;9.228;2023-04-25T11:33:15;6.57;;;4.90;;
10529;SDS011;5313;48.834;9.228;2023-04-25T11:35:41;7.43;;;4.63;;
10529;SDS011;5313;48.834;9.228;2023-04-25T11:38:06;7.10;;;5.50;;
10529;SDS011;5313;48.834;9.228;2023-04-25T11:40:32;5.47;;;4.30;;
10529;SDS011;5313;48.834;9.228;2023-04-25T11:42:59;6.23;;;4.23;;
10529;SDS011;5313;48.834;9.228;2023-04-25T11:45:25;7.30;;;4.83;;
10529;SDS011;5313;48.834;9.228;2023-04-25T11:47:51;6.17;;;3.83;;
10529;SDS011;5313;48.834;9.228;2023-04-25T11:50:17;6.40;;;4.20;;
10529;SDS011;5313;48.834;9.228;2023-04-25T11:52:44;7.53;;;3.73;;
10529;SDS011;5313;48.834;9.228;2023-04-25T11:55:14;5.27;;;3.70;;
10529;SDS011;5313;48.834;9.228;2023-04-25T11:57:45;5.73;;;4.10;;
10529;SDS011;5313;48.834;9.228;2023-04-25T12:00:15;5.50;;;3.60;;
10529;SDS011;5313;48.834;9.228;2023-04-25T12:02:46;7.30;;;4.17;;
10529;SDS011;5313;48.834;9.228;2023-04-25T12:05:15;5.70;;;4.60;;
10529;SDS011;5313;48.834;9.228;2023-04-25T12:07:41;5.77;;;4.37;;
10529;SDS011;5313;48.834;9.228;2023-04-25T12:10:08;15.13;;;5.17;;
10529;SDS011;5313;48.834;9.228;2023-04-25T12:12:36;6.83;;;4.73;;
10529;SDS011;5313;48.834;9.228;2023-04-25T12:15:35;7.27;;;4.93;;
10529;SDS011;5313;48.834;9.228;2023-04-25T12:17:54;7.53;;;5.27;;
10529;SDS011;5313;48.834;9.228;2023-04-25T12:20:20;7.83;;;5.30;;
10529;SDS011;5313;48.834;9.228;2023-04-25T12:22:49;6.27;;;4.93;;
10529;SDS011;5313;48.834;9.228;2023-04-25T12:28:14;7.30;;;5.30;;
10529;SDS011;5313;48.834;9.228;2023-04-25T12:33:22;10.50;;;5.80;;
10529;SDS011;5313;48.834;9.228;2023-04-25T12:35:48;7.43;;;5.70;;
10529;SDS011;5313;48.834;9.228;2023-04-25T12:38:27;9.60;;;5.30;;
10529;SDS011;5313;48.834;9.228;2023-04-25T12:40:55;9.13;;;5.97;;
10529;SDS011;5313;48.834;9.228;2023-04-25T12:43:21;8.90;;;5.67;;
10529;SDS011;5313;48.834;9.228;2023-04-25T12:45:50;9.93;;;6.60;;
10529;SDS011;5313;48.834;9.228;2023-04-25T12:48:17;7.80;;;5.93;;
10529;SDS011;5313;48.834;9.228;2023-04-25T12:50:43;7.50;;;5.90;;
10529;SDS011;5313;48.834;9.228;2023-04-25T12:53:09;9.07;;;6.60;;
10529;SDS011;5313;48.834;9.228;2023-04-25T12:55:36;10.73;;;5.93;;
10529;SDS011;5313;48.834;9.228;2023-04-25T12:58:02;8.50;;;5.30;;
10529;SDS011;5313;48.834;9.228;2023-04-25T13:00:28;8.80;;;6.30;;
10529;SDS011;5313;48.834;9.228;2023-04-25T13:02:54;9.47;;;5.83;;
10529;SDS011;5313;48.834;9.228;2023-04-25T13:05:20;9.53;;;6.70;;
10529;SDS011;5313;48.834;9.228;2023-04-25T13:07:45;8.10;;;5.30;;
10529;SDS011;5313;48.834;9.228;2023-04-25T13:10:11;9.73;;;5.60;;
10529;SDS011;5313;48.834;9.228;2023-04-25T13:12:36;6.53;;;5.10;;
10529;SDS011;5313;48.834;9.228;2023-04-25T13:15:02;8.63;;;5.00;;
10529;SDS011;5313;48.834;9.228;2023-04-25T13:17:28;8.20;;;5.63;;
10529;SDS011;5313;48.834;9.228;2023-04-25T13:19:53;9.73;;;6.10;;
10529;SDS011;5313;48.834;9.228;2023-04-25T13:22:19;8.33;;;5.03;;
10529;SDS011;5313;48.834;9.228;2023-04-25T13:24:45;7.73;;;4.90;;
10529;SDS011;5313;48.834;9.228;2023-04-25T13:27:11;6.97;;;5.30;;
10529;SDS011;5313;48.834;9.228;2023-04-25T13:29:38;7.37;;;5.37;;
10529;SDS011;5313;48.834;9.228;2023-04-25T13:32:05;7.03;;;5.60;;
10529;SDS011;5313;48.834;9.228;2023-04-25T13:34:31;9.47;;;5.87;;
10529;SDS011;5313;48.834;9.228;2023-04-25T13:36:57;8.43;;;5.67;;
10529;SDS011;5313;48.834;9.228;2023-04-25T13:39:23;6.80;;;5.63;;
10529;SDS011;5313;48.834;9.228;2023-04-25T13:41:48;8.10;;;6.27;;
10529;SDS011;5313;48.834;9.228;2023-04-25T13:44:14;10.27;;;6.13;;
10529;SDS011;5313;48.834;9.228;2023-04-25T13:46:40;10.87;;;6.80;;
10529;SDS011;5313;48.834;9.228;2023-04-25T13:49:05;10.17;;;7.17;;
10529;SDS011;5313;48.834;9.228;2023-04-25T13:51:31;11.27;;;7.90;;
10529;SDS011;5313;48.834;9.228;2023-04-25T13:53:56;15.63;;;8.90;;
10529;SDS011;5313;48.834;9.228;2023-04-25T13:56:22;8.63;;;6.60;;
10529;SDS011;5313;48.834;9.228;2023-04-25T13:58:49;10.73;;;7.83;;
10529;SDS011;5313;48.834;9.228;2023-04-25T14:01:16;10.47;;;8.07;;
10529;SDS011;5313;48.834;9.228;2023-04-25T14:03:42;9.67;;;7.33;;
10529;SDS011;5313;48.834;9.228;2023-04-25T14:06:07;11.07;;;7.10;;
10529;SDS011;5313;48.834;9.228;2023-04-25T14:08:33;10.93;;;6.70;;
10529;SDS011;5313;48.834;9.228;2023-04-25T14:10:59;7.67;;;5.87;;
10529;SDS011;5313;48.834;9.228;2023-04-25T14:13:25;7.90;;;6.10;;
10529;SDS011;5313;48.834;9.228;2023-04-25T14:15:51;6.33;;;5.37;;
10529;SDS011;5313;48.834;9.228;2023-04-25T14:18:17;8.40;;;5.80;;
10529;SDS011;5313;48.834;9.228;2023-04-25T14:20:43;8.07;;;5.47;;
10529;SDS011;5313;48.834;9.228;2023-04-25T14:23:09;8.43;;;5.60;;
10529;SDS011;5313;48.834;9.228;2023-04-25T14:25:35;7.00;;;5.47;;
10529;SDS011;5313;48.834;9.228;2023-04-25T14:28:01;7.33;;;4.70;;
10529;SDS011;5313;48.834;9.228;2023-04-25T14:30:27;6.37;;;4.80;;
10529;SDS011;5313;48.834;9.228;2023-04-25T14:32:52;8.27;;;4.80;;
10529;SDS011;5313;48.834;9.228;2023-04-25T14:35:19;7.50;;;5.23;;
10529;SDS011;5313;48.834;9.228;2023-04-25T14:37:45;6.10;;;5.00;;
10529;SDS011;5313;48.834;9.228;2023-04-25T14:40:11;7.30;;;5.10;;
10529;SDS011;5313;48.834;9.228;2023-04-25T14:42:38;8.57;;;5.23;;
10529;SDS011;5313;48.834;9.228;2023-04-25T14:45:07;5.87;;;4.73;;
10529;SDS011;5313;48.834;9.228;2023-04-25T14:47:34;5.77;;;4.33;;
10529;SDS011;5313;48.834;9.228;2023-04-25T14:50:02;6.83;;;5.37;;
10529;SDS011;5313;48.834;9.228;2023-04-25T14:52:29;5.60;;;4.43;;
10529;SDS011;5313;48.834;9.228;2023-04-25T14:54:55;8.17;;;4.20;;
10529;SDS011;5313;48.834;9.228;2023-04-25T14:57:21;7.93;;;4.73;;
10529;SDS011;5313;48.834;9.228;2023-04-25T14:59:46;8.07;;;5.17;;
10529;SDS011;5313;48.834;9.228;2023-04-25T15:02:12;8.03;;;5.37;;
10529;SDS011;5313;48.834;9.228;2023-04-25T15:04:37;6.60;;;4.80;;